Time;durP1;ratioP1;P1;durP2;ratioP2;P2;SDS_P1;SDS_P2;PMS_P1;PMS_P2;Temp;Humidity;BMP_temperature;BMP_pressure;BME280_temperature;BME280_humidity;BME280_pressure;Samples;Min_cycle;Max_cycle;Signal;HPM_P1;HPM_P2
2022/09/02 00:01:56;;;;;;;2.22;1.50;;;;;;;;;;5072120;28;20055;-84
2022/09/02 00:04:40;;;;;;;3.15;1.38;;;;;;;;;;5070574;28;20645;-87
2022/09/02 00:07:24;;;;;;;3.75;1.60;;;13.90;99.90;;;;;;5070334;28;20384;-84
2022/09/02 00:10:09;;;;;;;7.05;1.63;;;13.80;99.90;;;;;;5085357;28;20504;-85
2022/09/02 00:12:53;;;;;;;6.03;1.48;;;;;;;;;;5072001;28;20063;-83
2022/09/02 00:15:38;;;;;;;2.78;1.20;;;;;;;;;;5071517;28;20039;-86
2022/09/02 00:18:25;;;;;;;4.15;1.20;;;;;;;;;;5072070;28;20105;-85
2022/09/02 00:21:12;;;;;;;6.38;1.40;;;;;;;;;;5071692;28;20031;-84
2022/09/02 00:23:56;;;;;;;2.00;1.10;;;13.70;99.90;;;;;;5072028;28;20066;-83
2022/09/02 00:26:41;;;;;;;4.88;1.58;;;;;;;;;;5070375;28;20070;-85
2022/09/02 00:29:27;;;;;;;6.22;1.50;;;13.70;99.90;;;;;;5070249;28;20047;-88
2022/09/02 00:32:12;;;;;;;2.92;1.40;;;;;;;;;;5072010;28;20043;-85
2022/09/02 00:34:57;;;;;;;3.30;1.17;;;;;;;;;;5059449;28;20052;-85
2022/09/02 00:37:42;;;;;;;4.10;1.33;;;;;;;;;;5071259;28;20111;-84
2022/09/02 00:40:27;;;;;;;2.75;1.60;;;;;;;;;;5075669;28;20034;-87
2022/09/02 00:43:22;;;;;;;2.88;1.30;;;13.50;99.90;;;;;;5074708;28;20031;-86
2022/09/02 00:46:06;;;;;;;5.88;1.50;;;;;;;;;;5065145;28;20098;-86
2022/09/02 00:49:00;;;;;;;2.72;1.50;;;13.50;99.90;;;;;;5087597;28;20032;-83
2022/09/02 00:51:53;;;;;;;2.45;1.17;;;13.70;99.90;;;;;;5074972;28;20507;-83
2022/09/02 00:54:55;;;;;;;4.43;1.40;;;13.40;99.90;;;;;;5075137;28;20501;-85
2022/09/02 00:57:43;;;;;;;2.20;1.20;;;13.40;99.90;;;;;;5074219;28;20055;-86
2022/09/02 01:00:32;;;;;;;3.25;1.30;;;13.40;99.90;;;;;;5075539;28;20487;-85
2022/09/02 01:03:20;;;;;;;2.47;1.17;;;13.40;99.90;;;;;;5074523;28;20078;-84
2022/09/02 01:06:06;;;;;;;2.50;1.30;;;13.30;99.90;;;;;;5075478;28;20051;-86
2022/09/02 01:09:01;;;;;;;4.20;1.48;;;13.60;99.90;;;;;;5073703;28;20043;-86
2022/09/02 01:11:50;;;;;;;4.28;1.58;;;13.30;99.90;;;;;;5074903;28;20061;-83
2022/09/02 01:14:35;;;;;;;2.97;1.40;;;;;;;;;;5074939;28;20388;-84
2022/09/02 01:17:19;;;;;;;2.30;1.45;;;13.20;99.90;;;;;;5075038;28;20070;-84
2022/09/02 01:20:10;;;;;;;6.60;1.58;;;13.40;99.90;;;;;;5088510;28;20553;-84
2022/09/02 01:22:57;;;;;;;4.65;1.40;;;;;;;;;;5067935;28;20499;-86
2022/09/02 01:25:41;;;;;;;5.10;1.50;;;;;;;;;;5053866;28;20067;-86
2022/09/02 01:28:26;;;;;;;4.97;1.50;;;;;;;;;;5075090;28;20401;-85
2022/09/02 01:31:11;;;;;;;3.28;1.42;;;;;;;;;;5073877;28;20027;-84
2022/09/02 01:33:57;;;;;;;4.05;1.63;;;;;;;;;;5074390;28;20044;-84
2022/09/02 01:36:42;;;;;;;3.00;1.48;;;;;;;;;;5048599;28;20039;-84
2022/09/02 01:39:27;;;;;;;2.75;1.42;;;;;;;;;;5074709;28;20044;-86
2022/09/02 01:42:13;;;;;;;4.35;1.80;;;;;;;;;;5073901;28;20102;-85
2022/09/02 01:44:57;;;;;;;4.07;1.58;;;13.00;99.90;;;;;;5072227;28;20048;-82
2022/09/02 01:47:42;;;;;;;3.72;1.70;;;;;;;;;;5077035;28;20553;-83
2022/09/02 01:50:27;;;;;;;4.70;1.63;;;;;;;;;;5074259;28;20093;-84
2022/09/02 01:53:11;;;;;;;4.72;2.05;;;13.20;99.90;;;;;;5074711;28;20048;-85
2022/09/02 01:55:56;;;;;;;3.95;1.65;;;;;;;;;;5074149;28;20110;-83
2022/09/02 01:58:41;;;;;;;2.53;1.42;;;13.70;99.90;;;;;;5073645;28;20400;-85
2022/09/02 02:01:26;;;;;;;4.60;1.50;;;;;;;;;;5074535;28;20035;-84
2022/09/02 02:04:11;;;;;;;3.17;1.45;;;;;;;;;;5072869;28;20086;-87
2022/09/02 02:06:56;;;;;;;4.50;1.58;;;;;;;;;;5073791;28;20404;-85
2022/09/02 02:09:41;;;;;;;2.47;1.50;;;;;;;;;;5073752;28;20162;-86
2022/09/02 02:12:26;;;;;;;6.63;1.73;;;;;;;;;;5074303;28;20040;-85
2022/09/02 02:15:14;;;;;;;4.35;1.55;;;12.80;99.90;;;;;;5065472;28;20408;-84
2022/09/02 02:17:59;;;;;;;2.78;1.42;;;;;;;;;;5070325;28;20076;-83
2022/09/02 02:20:44;;;;;;;3.72;1.45;;;;;;;;;;5073583;28;20062;-85
2022/09/02 02:23:28;;;;;;;4.65;1.60;;;;;;;;;;5061032;28;20154;-85
2022/09/02 02:26:12;;;;;;;2.88;1.55;;;;;;;;;;5072633;28;20048;-84
2022/09/02 02:28:57;;;;;;;3.67;1.55;;;;;;;;;;5072477;28;20159;-84
2022/09/02 02:31:42;;;;;;;3.05;1.35;;;;;;;;;;5073331;28;20043;-87
2022/09/02 02:34:26;;;;;;;4.45;1.40;;;;;;;;;;5073796;28;20086;-83
2022/09/02 02:37:11;;;;;;;2.45;1.45;;;;;;;;;;5073787;28;20033;-83
2022/09/02 02:39:56;;;;;;;4.20;1.70;;;12.50;99.90;;;;;;5073009;28;20099;-84
2022/09/02 02:42:41;;;;;;;6.88;1.58;;;;;;;;;;5073520;28;20090;-84
2022/09/02 02:45:25;;;;;;;6.07;1.50;;;;;;;;;;5067413;28;20059;-84
2022/09/02 02:48:10;;;;;;;3.90;1.70;;;;;;;;;;5053457;28;20170;-85
2022/09/02 02:50:54;;;;;;;2.75;1.33;;;;;;;;;;5060261;28;20044;-86
2022/09/02 02:53:41;;;;;;;2.47;1.60;;;12.60;99.90;;;;;;5066587;28;20040;-85
2022/09/02 02:56:28;;;;;;;2.00;1.38;;;12.60;99.90;;;;;;5082073;28;20034;-86
2022/09/02 02:59:13;;;;;;;2.58;1.58;;;;;;;;;;5057984;28;20036;-86
2022/09/02 03:01:58;;;;;;;3.28;1.73;;;;;;;;;;5072774;28;20116;-84
2022/09/02 03:04:42;;;;;;;3.78;1.67;;;12.40;99.90;;;;;;5071998;28;20149;-85
2022/09/02 03:07:27;;;;;;;3.10;1.48;;;12.60;99.90;;;;;;5057475;28;20039;-84
2022/09/02 03:10:12;;;;;;;2.65;1.50;;;12.50;99.90;;;;;;5086188;28;20506;-83
2022/09/02 03:12:58;;;;;;;4.93;1.80;;;;;;;;;;5072321;28;20035;-84
2022/09/02 03:15:42;;;;;;;3.40;1.63;;;;;;;;;;5072904;28;20071;-83
2022/09/02 03:18:26;;;;;;;3.67;1.70;;;12.20;99.90;;;;;;5060978;28;20121;-85
2022/09/02 03:21:11;;;;;;;4.68;2.40;;;;;;;;;;5067393;28;20124;-83
2022/09/02 03:23:56;;;;;;;2.70;1.58;;;;;;;;;;5062319;28;20091;-83
2022/09/02 03:26:42;;;;;;;3.47;1.55;;;12.40;99.90;;;;;;5071287;28;20040;-84
2022/09/02 03:29:26;;;;;;;2.40;1.45;;;;;;;;;;5072771;28;20171;-83
2022/09/02 03:32:11;;;;;;;3.38;1.50;;;;;;;;;;5053366;28;20443;-85
2022/09/02 03:34:55;;;;;;;2.65;1.70;;;;;;;;;;5068575;28;20094;-85
2022/09/02 03:37:40;;;;;;;7.75;1.90;;;;;;;;;;5071622;28;20074;-82
2022/09/02 03:40:27;;;;;;;3.38;1.50;;;12.30;99.90;;;;;;5072304;28;20035;-83
2022/09/02 03:43:12;;;;;;;2.97;1.75;;;12.20;99.90;;;;;;5071723;28;20101;-84
2022/09/02 03:45:57;;;;;;;3.03;1.67;;;;;;;;;;5085231;28;20036;-82
2022/09/02 03:48:43;;;;;;;4.88;1.55;;;;;;;;;;5072264;28;20125;-83
2022/09/02 03:51:27;;;;;;;6.30;1.90;;;;;;;;;;5072236;28;20110;-83
2022/09/02 03:54:12;;;;;;;6.10;1.85;;;;;;;;;;5070808;28;20081;-83
2022/09/02 03:56:57;;;;;;;3.70;1.73;;;;;;;;;;5070510;28;20059;-85
2022/09/02 03:59:42;;;;;;;3.72;1.67;;;;;;;;;;5052129;28;20040;-84
2022/09/02 04:02:26;;;;;;;4.07;1.88;;;;;;;;;;5082480;28;20036;-86
2022/09/02 04:05:11;;;;;;;3.90;1.92;;;;;;;;;;5071776;28;20117;-85
2022/09/02 04:07:56;;;;;;;3.00;1.67;;;;;;;;;;5071031;28;20032;-85
2022/09/02 04:10:40;;;;;;;3.70;1.70;;;;;;;;;;5070850;28;20047;-85
2022/09/02 04:13:25;;;;;;;9.55;1.90;;;;;;;;;;5072109;28;20031;-85
2022/09/02 04:16:12;;;;;;;3.70;1.92;;;11.80;99.90;;;;;;5071314;28;20051;-85
2022/09/02 04:18:57;;;;;;;3.45;1.95;;;11.80;99.90;;;;;;5070566;28;20043;-88
2022/09/02 04:21:42;;;;;;;3.85;2.13;;;;;;;;;;5047261;28;20107;-83
2022/09/02 04:24:27;;;;;;;6.35;1.83;;;;;;;;;;5070823;28;20036;-84
2022/09/02 04:27:11;;;;;;;4.88;1.80;;;;;;;;;;5070427;28;20047;-83
2022/09/02 04:29:56;;;;;;;4.25;1.90;;;;;;;;;;5071568;28;20051;-86
2022/09/02 04:32:41;;;;;;;3.28;1.77;;;;;;;;;;5071898;28;20162;-85
2022/09/02 04:35:25;;;;;;;4.75;1.80;;;;;;;;;;5071919;28;20503;-85
2022/09/02 04:38:10;;;;;;;2.92;1.90;;;;;;;;;;5070029;28;20404;-85
2022/09/02 04:40:55;;;;;;;2.67;1.73;;;;;;;;;;5070891;28;20054;-85
2022/09/02 04:43:39;;;;;;;3.25;1.85;;;;;;;;;;5071825;28;20066;-85
2022/09/02 04:46:25;;;;;;;5.97;1.75;;;;;;;;;;5070342;28;20132;-84
2022/09/02 04:49:10;;;;;;;2.67;1.67;;;;;;;;;;5071258;28;20035;-85
2022/09/02 04:51:54;;;;;;;4.18;2.10;;;;;;;;;;5071330;28;20488;-83
2022/09/02 04:54:39;;;;;;;3.15;1.80;;;;;;;;;;5071693;28;20442;-83
2022/09/02 04:57:23;;;;;;;3.50;1.95;;;;;;;;;;5066357;28;20078;-85
2022/09/02 05:00:09;;;;;;;3.47;2.10;;;11.30;99.90;;;;;;5070168;28;20032;-83
2022/09/02 05:02:53;;;;;;;3.83;2.10;;;;;;;;;;5070620;28;20438;-83
2022/09/02 05:05:39;;;;;;;6.63;2.28;;;;;;;;;;5084784;28;20535;-83
2022/09/02 05:08:23;;;;;;;3.10;1.73;;;;;;;;;;5069684;28;20047;-83
2022/09/02 05:11:10;;;;;;;2.78;1.83;;;11.40;99.90;;;;;;5069790;28;20599;-83
2022/09/02 05:13:57;;;;;;;4.60;2.33;;;11.40;99.90;;;;;;5071486;28;20032;-83
2022/09/02 05:16:44;;;;;;;5.53;2.33;;;;;;;;;;5071552;28;20082;-84
2022/09/02 05:19:29;;;;;;;3.90;2.05;;;;;;;;;;5073328;28;20040;-83
2022/09/02 05:22:14;;;;;;;4.60;2.00;;;;;;;;;;5050022;28;20116;-83
2022/09/02 05:24:59;;;;;;;4.97;2.10;;;;;;;;;;5074799;28;20192;-83
2022/09/02 05:27:43;;;;;;;3.42;2.00;;;;;;;;;;5074869;28;20060;-84
2022/09/02 05:30:28;;;;;;;2.58;1.85;;;;;;;;;;5074426;28;20067;-83
2022/09/02 05:33:13;;;;;;;5.63;2.22;;;;;;;;;;5073286;28;20039;-86
2022/09/02 05:35:58;;;;;;;6.13;1.98;;;;;;;;;;5074922;28;20039;-83
2022/09/02 05:38:43;;;;;;;3.85;2.25;;;11.60;99.90;;;;;;5074656;28;20533;-83
2022/09/02 05:41:28;;;;;;;4.22;2.00;;;;;;;;;;5073291;28;20105;-83
2022/09/02 05:44:13;;;;;;;4.25;2.10;;;;;;;;;;5074250;28;20105;-83
2022/09/02 05:46:57;;;;;;;3.47;2.20;;;;;;;;;;5074455;28;20525;-83
2022/09/02 05:49:42;;;;;;;6.82;2.00;;;;;;;;;;5074621;28;20063;-84
2022/09/02 05:52:27;;;;;;;2.97;2.28;;;11.80;99.90;;;;;;5073787;28;20191;-84
2022/09/02 05:55:12;;;;;;;4.55;2.30;;;;;;;;;;5074227;28;20044;-85
2022/09/02 05:57:56;;;;;;;3.55;1.83;;;;;;;;;;5064466;28;20499;-84
2022/09/02 06:00:41;;;;;;;5.05;2.65;;;;;;;;;;5084884;28;20111;-83
2022/09/02 06:03:25;;;;;;;3.60;2.22;;;;;;;;;;5072453;28;20043;-86
2022/09/02 06:06:10;;;;;;;4.22;2.15;;;;;;;;;;5072921;28;20197;-87
2022/09/02 06:08:55;;;;;;;5.07;2.30;;;;;;;;;;5072868;28;20101;-88
2022/09/02 06:11:43;;;;;;;5.28;1.98;;;12.40;99.90;;;;;;5068530;28;20084;-82
2022/09/02 06:14:28;;;;;;;4.95;2.28;;;;;;;;;;5050351;28;20164;-85
2022/09/02 06:17:13;;;;;;;4.13;2.45;;;;;;;;;;5066693;28;20568;-86
2022/09/02 06:19:58;;;;;;;3.10;2.03;;;;;;;;;;5054293;28;20516;-84
2022/09/02 06:22:43;;;;;;;4.28;1.92;;;;;;;;;;5053788;28;20040;-81
2022/09/02 06:25:27;;;;;;;3.70;2.22;;;;;;;;;;5053449;28;20131;-84
2022/09/02 06:28:12;;;;;;;5.00;2.50;;;;;;;;;;5052669;28;20036;-85
2022/09/02 06:30:56;;;;;;;4.63;2.00;;;;;;;;;;5053295;28;20094;-84
2022/09/02 06:33:43;;;;;;;3.90;2.08;;;13.20;99.90;;;;;;5053295;28;20566;-82
2022/09/02 06:36:29;;;;;;;3.45;2.17;;;13.40;99.90;;;;;;5056859;28;20064;-83
2022/09/02 06:39:17;;;;;;;3.65;2.00;;;13.40;99.90;;;;;;5045937;28;20393;-88
2022/09/02 06:42:01;;;;;;;5.80;2.25;;;;;;;;;;5037227;28;20044;-85
2022/09/02 06:44:45;;;;;;;6.85;2.58;;;13.80;99.90;;;;;;5047882;28;20040;-86
2022/09/02 06:47:30;;;;;;;3.40;1.95;;;;;;;;;;5055095;28;20444;-85
2022/09/02 06:50:15;;;;;;;9.93;2.33;;;;;;;;;;5053544;28;20082;-89
2022/09/02 06:53:00;;;;;;;3.05;1.70;;;;;;;;;;5053671;28;20117;-83
2022/09/02 06:55:44;;;;;;;5.85;2.70;;;14.30;99.90;;;;;;5066356;28;20047;-84
2022/09/02 06:58:29;;;;;;;4.93;1.95;;;;;;;;;;5052938;28;20039;-83
2022/09/02 07:01:18;;;;;;;4.82;2.22;;;14.50;99.90;;;;;;5053215;28;20032;-84
2022/09/02 07:07:07;;;;;;;4.78;2.08;;;;;;;;;;5063681;28;20512;-84
2022/09/02 07:09:54;;;;;;;3.72;2.58;;;;;;;;;;5053140;28;20083;-83
2022/09/02 07:12:39;;;;;;;4.97;2.08;;;;;;;;;;5065311;28;20391;-83
2022/09/02 07:15:24;;;;;;;6.38;1.90;;;;;;;;;;5065513;28;20044;-85
2022/09/02 07:18:09;;;;;;;3.53;2.10;;;;;;;;;;5066213;28;20579;-86
2022/09/02 07:20:54;;;;;;;3.08;1.90;;;16.80;99.90;;;;;;5052930;28;20040;-85
2022/09/02 07:23:39;;;;;;;3.97;1.70;;;17.30;99.90;;;;;;5065466;28;20753;-82
2022/09/02 07:26:23;;;;;;;4.40;1.80;;;;;;;;;;5052119;28;20131;-86
2022/09/02 07:29:08;;;;;;;3.15;2.00;;;19.50;99.90;;;;;;5066152;28;20453;-86
2022/09/02 07:31:52;;;;;;;4.70;1.70;;;20.00;99.90;;;;;;5051812;28;20120;-88
2022/09/02 07:34:36;;;;;;;6.40;2.03;;;21.20;99.90;;;;;;5065184;28;20496;-87
2022/09/02 07:37:21;;;;;;;3.92;2.10;;;;;;;;;;5052464;28;20099;-89
2022/09/02 07:40:10;;;;;;;2.95;1.40;;;23.00;93.50;;;;;;5045857;28;20489;-89
2022/09/02 07:42:54;;;;;;;6.22;1.60;;;23.10;99.90;;;;;;5046723;28;20036;-88
2022/09/02 07:45:42;;;;;;;3.13;1.52;;;22.90;99.30;;;;;;5051935;28;20099;-87
2022/09/02 07:48:28;;;;;;;4.15;1.50;;;22.20;99.90;;;;;;5064555;28;20533;-87
2022/09/02 07:51:12;;;;;;;6.78;1.80;;;;;;;;;;5052339;28;20102;-88
2022/09/02 07:53:57;;;;;;;5.30;1.90;;;;;;;;;;5052555;28;20043;-88
2022/09/02 07:56:42;;;;;;;4.70;1.40;;;;;;;;;;5051748;28;20507;-87
2022/09/02 07:59:26;;;;;;;6.82;1.73;;;;;;;;;;5051610;28;20090;-86
2022/09/02 08:02:11;;;;;;;4.28;1.60;;;21.40;99.90;;;;;;5052249;28;20044;-86
2022/09/02 08:04:55;;;;;;;4.35;1.70;;;;;;;;;;5065199;28;20083;-87
2022/09/02 08:07:40;;;;;;;5.22;1.67;;;;;;;;;;5051477;28;20424;-86
2022/09/02 08:10:27;;;;;;;4.45;1.70;;;;;;;;;;5052097;28;20047;-86
2022/09/02 08:13:12;;;;;;;7.32;1.75;;;;;;;;;;5051966;28;20047;-87
2022/09/02 08:15:56;;;;;;;2.70;1.48;;;;;;;;;;5051923;28;20043;-84
2022/09/02 08:18:41;;;;;;;4.40;1.58;;;;;;;;;;5064615;28;20040;-86
2022/09/02 08:21:26;;;;;;;5.13;1.50;;;;;;;;;;5052029;28;20162;-88
2022/09/02 08:24:10;;;;;;;4.85;1.38;;;;;;;;;;5051868;28;20128;-85
2022/09/02 08:26:55;;;;;;;3.05;1.52;;;;;;;;;;5065020;28;20087;-87
2022/09/02 08:29:40;;;;;;;3.70;1.42;;;;;;;;;;5051262;28;20063;-87
2022/09/02 08:32:24;;;;;;;2.90;1.60;;;;;;;;;;5051851;28;20044;-85
2022/09/02 08:35:09;;;;;;;8.88;1.73;;;21.60;91.10;;;;;;5052028;28;20044;-86
2022/09/02 08:37:54;;;;;;;6.20;1.80;;;;;;;;;;5064677;28;20048;-86
2022/09/02 08:40:42;;;;;;;5.18;1.35;;;22.00;99.90;;;;;;5064399;28;20060;-86
2022/09/02 08:43:28;;;;;;;5.07;1.58;;;;;;;;;;5051590;28;20103;-86
2022/09/02 08:46:16;;;;;;;9.00;1.80;;;21.90;90.40;;;;;;5051636;28;20098;-87
2022/09/02 08:49:07;;;;;;;3.30;1.40;;;22.50;99.90;;;;;;5051856;28;20044;-89
2022/09/02 08:52:04;;;;;;;6.97;1.75;;;22.10;89.00;;;;;;5050889;28;20059;-87
2022/09/02 08:54:54;;;;;;;5.18;1.50;;;22.70;99.90;;;;;;5053760;28;20056;-87
2022/09/02 08:57:39;;;;;;;5.72;1.70;;;;;;;;;;5055269;28;20079;-88
2022/09/02 09:00:23;;;;;;;3.75;1.30;;;;;;;;;;5068557;28;20047;-88
2022/09/02 09:03:35;;;;;;;3.67;1.63;;;22.80;85.60;;;;;;5068801;28;20079;-90
2022/09/02 09:06:28;;;;;;;3.63;1.20;;;23.00;84.30;;;;;;5068456;28;20108;-89
2022/09/02 09:09:22;;;;;;;2.23;1.10;;;;;;;;;;5055280;28;20044;-88
2022/09/02 09:12:25;;;;;;;;;;;23.30;81.50;;;;;;5056030;28;20674;-89
2022/09/02 09:15:19;;;;;;;8.52;1.33;;;;;;;;;;5046424;28;19938;-87
2022/09/02 09:18:06;;;;;;;;;;;23.60;80.60;;;;;;5055840;28;20036;-89
2022/09/02 09:20:50;;;;;;;4.57;1.20;;;;;;;;;;5053830;28;19920;-87
2022/09/02 09:23:38;;;;;;;2.20;1.10;;;23.90;77.70;;;;;;5068050;28;20063;-89
2022/09/02 09:26:27;;;;;;;5.95;1.35;;;;;;;;;;5054911;28;20428;-88
2022/09/02 09:29:12;;;;;;;3.20;1.27;;;;;;;;;;5054653;28;20067;-87
2022/09/02 09:31:58;;;;;;;5.28;1.30;;;;;;;;;;5042774;28;20092;-82
2022/09/02 09:34:50;;;;;;;4.53;1.40;;;;;;;;;;5040999;28;20191;-81
2022/09/02 09:37:35;;;;;;;6.35;1.63;;;;;;;;;;5038455;28;20036;-82
2022/09/02 09:40:21;;;;;;;4.72;1.30;;;;;;;;;;5042748;28;20531;-81
2022/09/02 09:43:09;;;;;;;2.47;1.00;;;;;;;;;;5054716;28;20060;-84
2022/09/02 09:45:54;;;;;;;3.58;1.35;;;;;;;;;;5051441;28;20061;-89
2022/09/02 09:48:48;;;;;;;4.10;1.00;;;24.50;71.60;;;;;;5070469;28;20082;-86
2022/09/02 09:51:33;;;;;;;3.05;1.10;;;;;;;;;;5067727;28;20039;-88
2022/09/02 09:54:17;;;;;;;4.30;1.83;;;;;;;;;;5064817;28;20412;-86
2022/09/02 09:57:14;;;;;;;7.03;1.23;;;;;;;;;;5068018;28;20051;-83
2022/09/02 10:00:02;;;;;;;2.97;1.20;;;;;;;;;;5047872;28;20060;-84
2022/09/02 10:02:48;;;;;;;4.57;1.38;;;;;;;;;;5041202;28;20044;-85
2022/09/02 10:07:02;;;;;;;3.22;1.10;;;;;;;;;;5118417;27;1953039;-81
2022/09/02 10:09:46;;;;;;;5.90;1.40;;;;;;;;;;5155408;27;20068;-83
2022/09/02 10:12:32;;;;;;;3.78;1.20;;;;;;;;;;5125233;27;20095;-85
2022/09/02 10:15:22;;;;;;;4.82;1.13;;;;;;;;;;5168301;27;20491;-87
2022/09/02 10:18:34;;;;;;;4.88;2.80;;;25.30;64.40;;;;;;5135699;27;20096;-85
2022/09/02 10:21:21;;;;;;;3.30;1.25;;;;;;;;;;5141172;27;20053;-86
2022/09/02 10:24:43;;;;;;;3.15;0.85;;;25.50;60.90;;;;;;5149082;27;20038;-86
2022/09/02 10:27:49;;;;;;;4.65;1.05;;;25.50;61.60;;;;;;5151360;27;20047;-87
2022/09/02 10:30:41;;;;;;;7.65;1.20;;;;;;;;;;5135589;27;20482;-89
2022/09/02 10:33:38;;;;;;;4.65;1.00;;;;;;;;;;5135432;27;20034;-88
2022/09/02 10:36:35;;;;;;;4.90;0.93;;;;;;;;;;5165758;27;20034;-88
2022/09/02 10:39:32;;;;;;;7.55;1.20;;;;;;;;;;5159525;27;20029;-87
2022/09/02 10:42:28;;;;;;;3.75;1.20;;;;;;;;;;5159178;27;20038;-86
2022/09/02 10:45:24;;;;;;;1.88;1.00;;;;;;;;;;5155751;27;20041;-91
2022/09/02 10:48:28;;;;;;;5.07;1.40;;;26.10;56.50;;;;;;5155378;27;20089;-86
2022/09/02 10:51:33;;;;;;;3.15;0.88;;;;;;;;;;5149021;27;20062;-87
2022/09/02 10:54:35;;;;;;;2.58;1.10;;;;;;;;;;5139723;27;20134;-85
2022/09/02 10:57:29;;;;;;;3.80;1.10;;;;;;;;;;5152436;27;20221;-87
2022/09/02 11:00:18;;;;;;;3.50;1.13;;;;;;;;;;5157279;27;20049;-85
2022/09/02 11:03:26;;;;;;;4.72;0.93;;;26.10;56.00;;;;;;5159387;27;20153;-85
2022/09/02 11:06:27;;;;;;;4.85;1.05;;;26.20;55.70;;;;;;5147931;27;20078;-87
2022/09/02 11:09:21;;;;;;;2.97;1.00;;;;;;;;;;5149864;27;20033;-87
2022/09/02 11:12:10;;;;;;;;;;;26.20;55.00;;;;;;5134783;27;20147;-86
2022/09/02 11:14:55;;;;;;;2.25;1.08;;;;;;;;;;5150067;27;19955;-93
2022/09/02 11:18:00;;;;;;;29.50;5.43;;;26.20;54.50;;;;;;5125239;27;20052;-86
2022/09/02 11:21:02;;;;;;;3.78;1.30;;;26.40;53.50;;;;;;5120682;27;20039;-85
2022/09/02 11:23:56;;;;;;;5.90;1.00;;;26.50;53.60;;;;;;5136196;27;20111;-88
2022/09/02 11:27:08;;;;;;;4.28;0.85;;;25.90;76.20;;;;;;5144117;27;20034;-89
2022/09/02 11:30:03;;;;;;;5.63;1.25;;;;;;;;;;5108346;27;20087;-84
2022/09/02 11:33:07;;;;;;;5.18;0.90;;;27.10;50.50;;;;;;5122303;27;20042;-83
2022/09/02 11:35:52;;;;;;;4.10;0.93;;;;;;;;;;5127239;27;20068;-93
2022/09/02 11:38:48;;;;;;;4.93;1.65;;;27.20;49.50;;;;;;5136064;27;20038;-87
2022/09/02 11:41:57;;;;;;;3.55;1.17;;;26.70;78.20;;;;;;5135946;27;20111;-84
2022/09/02 11:44:57;;;;;;;2.38;0.98;;;;;;;;;;5150500;27;20137;-86
2022/09/02 11:47:50;;;;;;;4.03;0.88;;;27.90;74.40;;;;;;5120552;27;20492;-86
2022/09/02 11:51:08;;;;;;;6.32;1.10;;;27.30;50.20;;;;;;5136162;27;20034;-87
2022/09/02 11:53:55;;;;;;;7.13;0.90;;;27.40;50.10;;;;;;5135894;27;20469;-85
2022/09/02 11:56:49;;;;;;;4.22;0.90;;;27.40;48.70;;;;;;5134442;27;20087;-86
2022/09/02 11:59:52;;;;;;;4.90;1.00;;;;;;;;;;5135924;27;20429;-91
2022/09/02 12:02:37;;;;;;;8.27;1.30;;;;;;;;;;5141465;27;20038;-90
2022/09/02 12:05:33;;;;;;;2.60;0.98;;;28.00;68.90;;;;;;5156686;27;20069;-88
2022/09/02 12:08:26;;;;;;;7.50;1.10;;;27.20;67.60;;;;;;5140724;27;20048;-90
2022/09/02 12:11:29;;;;;;;3.00;1.00;;;26.60;68.40;;;;;;5135553;27;20030;-87
2022/09/02 12:14:20;;;;;;;4.43;1.10;;;27.80;71.20;;;;;;5131874;27;20487;-88
2022/09/02 12:17:06;;;;;;;6.15;1.20;;;27.60;47.30;;;;;;5132437;27;20107;-86
2022/09/02 12:19:51;;;;;;;4.63;0.93;;;;;;;;;;5136111;27;20034;-87
2022/09/02 12:22:40;;;;;;;4.05;0.95;;;27.60;47.70;;;;;;5134218;27;20540;-90
2022/09/02 12:25:25;;;;;;;5.70;1.35;;;;;;;;;;5135217;27;20045;-86
2022/09/02 12:28:16;;;;;;;4.78;1.20;;;27.60;47.50;;;;;;5134062;27;20038;-86
2022/09/02 12:31:04;;;;;;;3.25;1.00;;;;;;;;;;5134599;27;20038;-89
2022/09/02 12:33:50;;;;;;;3.63;1.20;;;27.60;47.40;;;;;;5134922;27;20026;-92
2022/09/02 12:36:41;;;;;;;4.43;0.90;;;27.50;68.80;;;;;;5134782;27;20068;-91
2022/09/02 12:39:29;;;;;;;4.22;1.20;;;;;;;;;;5134756;27;20041;-86
2022/09/02 12:42:32;;;;;;;4.45;1.00;;;27.70;46.20;;;;;;5144076;27;20076;-85
2022/09/02 12:45:26;;;;;;;2.53;1.05;;;27.30;62.60;;;;;;5134350;27;20046;-84
2022/09/02 12:48:16;;;;;;;2.53;1.25;;;27.90;46.60;;;;;;5137596;27;20057;-85
2022/09/02 12:51:01;;;;;;;4.82;1.25;;;;;;;;;;5134926;27;20042;-84
2022/09/02 12:53:49;;;;;;;2.67;1.00;;;27.40;61.20;;;;;;5141846;27;20134;-88
2022/09/02 12:56:34;;;;;;;3.42;1.00;;;;;;;;;;5142057;27;20402;-88
2022/09/02 12:59:30;;;;;;;4.70;1.10;;;27.60;63.40;;;;;;5142067;27;20037;-88
2022/09/02 13:02:43;;;;;;;4.85;1.10;;;27.60;45.80;;;;;;5137953;27;20042;-88
2022/09/02 13:05:52;;;;;;;3.15;1.02;;;27.60;63.50;;;;;;5133763;27;20070;-92
2022/09/02 13:08:37;;;;;;;2.80;1.15;;;;;;;;;;5147982;27;20038;-89
2022/09/02 13:11:40;;;;;;;3.25;1.20;;;;;;;;;;5131796;27;20084;-84
2022/09/02 13:14:43;;;;;;;4.40;1.10;;;28.20;68.20;;;;;;5119855;27;20128;-85
2022/09/02 13:17:31;;;;;;;3.83;1.20;;;;;;;;;;5128856;27;20042;-89
2022/09/02 13:20:27;;;;;;;2.50;1.10;;;28.50;65.50;;;;;;5134854;27;20054;-88
2022/09/02 13:23:44;;;;;;;5.35;1.10;;;28.50;45.20;;;;;;5119864;27;20125;-90
2022/09/02 13:30:21;;;;;;;2.90;1.13;;;27.70;57.20;;;;;;5134381;27;20137;-88
2022/09/02 13:33:10;;;;;;;3.03;1.00;;;28.30;44.30;;;;;;5133108;27;20084;-86
2022/09/02 13:35:58;;;;;;;3.75;1.00;;;27.70;44.60;;;;;;5123415;27;20068;-85
2022/09/02 13:38:42;;;;;;;5.30;1.45;;;;;;;;;;5137963;27;20066;-87
2022/09/02 13:41:28;;;;;;;5.55;1.20;;;27.60;45.40;;;;;;5145160;27;20472;-88
2022/09/02 13:44:27;;;;;;;3.95;0.90;;;27.70;45.20;;;;;;5137567;27;20429;-86
2022/09/02 13:47:18;;;;;;;4.30;1.00;;;;;;;;;;5126847;27;20033;-89
2022/09/02 13:50:05;;;;;;;3.65;1.00;;;;;;;;;;5132383;27;20505;-90
2022/09/02 13:52:52;;;;;;;2.40;1.23;;;;;;;;;;5124694;27;20444;-86
2022/09/02 13:55:37;;;;;;;2.80;1.05;;;;;;;;;;5115699;27;20107;-90
2022/09/02 13:58:22;;;;;;;2.47;0.95;;;;;;;;;;5122791;27;20424;-88
2022/09/02 14:01:17;;;;;;;5.55;1.27;;;;;;;;;;5129834;27;20042;-88
2022/09/02 14:07:51;;;;;;;3.70;1.05;;;;;;;;;;5101458;28;20070;-88
2022/09/02 14:10:37;;;;;;;2.85;1.17;;;;;;;;;;5098590;28;20043;-89
2022/09/02 14:13:22;;;;;;;5.03;0.90;;;;;;;;;;5101658;28;20273;-86
2022/09/02 14:16:25;;;;;;;5.03;1.00;;;27.90;43.90;;;;;;5100275;28;20443;-86
2022/09/02 14:19:16;;;;;;;2.47;1.02;;;;;;;;;;5108594;28;20533;-89
2022/09/02 14:22:01;;;;;;;5.50;1.08;;;30.40;46.70;;;;;;5109159;28;20454;-85
2022/09/02 14:24:45;;;;;;;2.58;1.10;;;;;;;;;;5103756;28;20034;-85
2022/09/02 14:27:39;;;;;;;3.30;0.90;;;;;;;;;;5093817;28;20078;-89
2022/09/02 14:30:30;;;;;;;2.35;1.02;;;;;;;;;;5102887;28;20670;-89
2022/09/02 14:33:15;;;;;;;5.32;1.08;;;;;;;;;;5105906;28;20030;-89
2022/09/02 14:36:04;;;;;;;2.67;0.80;;;;;;;;;;5105782;28;20047;-88
2022/09/02 14:38:56;;;;;;;3.85;1.17;;;;;;;;;;5103529;28;20059;-89
2022/09/02 14:41:51;;;;;;;7.47;1.25;;;;;;;;;;5090772;28;20097;-90
2022/09/02 14:44:36;;;;;;;2.05;1.10;;;;;;;;;;5092704;28;20128;-88
2022/09/02 14:47:23;;;;;;;6.88;1.30;;;;;;;;;;5088063;28;20043;-89
2022/09/02 14:50:16;;;;;;;8.20;1.10;;;;;;;;;;5090238;28;20031;-88
2022/09/02 14:53:06;;;;;;;2.05;1.10;;;25.80;46.90;;;;;;5093729;28;20039;-88
2022/09/02 14:55:52;;;;;;;2.47;1.15;;;;;;;;;;5093380;28;20407;-88
2022/09/02 14:58:37;;;;;;;5.57;1.25;;;;;;;;;;5102271;28;20036;-86
2022/09/02 15:01:22;;;;;;;4.03;1.38;;;;;;;;;;5106347;28;20045;-91
2022/09/02 15:04:07;;;;;;;3.05;1.00;;;;;;;;;;5095509;28;20054;-86
2022/09/02 15:06:52;;;;;;;5.47;1.10;;;;;;;;;;5130172;27;20134;-87
2022/09/02 15:09:39;;;;;;;3.80;1.20;;;;;;;;;;5144177;27;20038;-89
2022/09/02 15:12:28;;;;;;;5.10;1.10;;;;;;;;;;5128616;27;20709;-90
2022/09/02 15:15:15;;;;;;;5.28;1.30;;;;;;;;;;5149648;27;20045;-91
2022/09/02 15:18:01;;;;;;;9.35;1.27;;;;;;;;;;5140992;27;20444;-90
2022/09/02 15:20:46;;;;;;;4.53;0.90;;;;;;;;;;5133541;27;20091;-89
2022/09/02 15:23:31;;;;;;;3.22;1.02;;;;;;;;;;5146959;27;20042;-89
2022/09/02 15:26:16;;;;;;;3.75;1.13;;;;;;;;;;5133164;27;20077;-90
2022/09/02 15:29:02;;;;;;;5.35;1.00;;;;;;;;;;5139402;27;20489;-88
2022/09/02 15:31:47;;;;;;;3.38;1.00;;;;;;;;;;5122836;27;20072;-89
2022/09/02 15:34:31;;;;;;;4.75;1.20;;;25.80;46.20;;;;;;5135294;27;20088;-87
2022/09/02 15:37:16;;;;;;;4.00;1.60;;;;;;;;;;5132849;27;20046;-87
2022/09/02 15:40:00;;;;;;;3.15;1.23;;;;;;;;;;5117138;27;20593;-89
2022/09/02 15:42:45;;;;;;;3.75;1.30;;;;;;;;;;5104986;27;20114;-86
2022/09/02 15:45:30;;;;;;;4.43;1.15;;;;;;;;;;5133163;27;20034;-91
2022/09/02 15:48:14;;;;;;;3.72;1.58;;;;;;;;;;5145809;27;20049;-89
2022/09/02 15:50:59;;;;;;;3.17;1.58;;;;;;;;;;5130459;27;20111;-88
2022/09/02 15:53:44;;;;;;;3.75;1.40;;;;;;;;;;5144872;27;20082;-88
2022/09/02 15:56:30;;;;;;;4.38;1.40;;;25.20;48.00;;;;;;5117319;27;20060;-91
2022/09/02 15:59:17;;;;;;;2.53;1.17;;;25.30;48.10;;;;;;5131262;27;20042;-88
2022/09/02 16:02:02;;;;;;;4.68;1.42;;;;;;;;;;5120204;27;20395;-87
2022/09/02 16:04:46;;;;;;;4.53;1.40;;;;;;;;;;5127370;27;20038;-87
2022/09/02 16:07:31;;;;;;;4.93;1.13;;;;;;;;;;5133552;27;20172;-90
2022/09/02 16:10:16;;;;;;;2.40;0.93;;;;;;;;;;5140143;27;20596;-88
2022/09/02 16:13:02;;;;;;;2.33;1.33;;;;;;;;;;5123764;27;20513;-86